Time;durP1;ratioP1;P1;durP2;ratioP2;P2;SDS_P1;SDS_P2;PMS_P1;PMS_P2;Temp;Humidity;BMP_temperature;BMP_pressure;BME280_temperature;BME280_humidity;BME280_pressure;Samples;Min_cycle;Max_cycle;Signal;HPM_P1;HPM_P2
2022/05/01 01:11:29;;;;;;;;;;;;;;;;;;;;;
2022/05/01 01:40:17;;;;;;;17.83;13.23;;;6.60;99.90;;;;;;4785511;29;20865;-86
2022/05/01 01:46:10;;;;;;;23.00;13.43;;;6.60;99.90;;;;;;4801107;29;20363;-86
2022/05/01 01:57:47;;;;;;;14.27;12.50;;;6.60;99.90;;;;;;4651359;30;20227;-87
2022/05/01 02:23:14;;;;;;;18.05;15.23;;;6.90;99.90;;;;;;4969107;28;20227;-84
2022/05/01 02:47:32;;;;;;;13.77;12.25;;;7.60;99.90;;;;;;4947208;28;20211;-88
2022/05/01 02:50:00;;;;;;;20.35;12.52;;;7.60;99.90;;;;;;4947384;29;20313;-86
2022/05/01 03:22:18;;;;;;;19.27;11.43;;;7.70;99.90;;;;;;4968444;28;20228;-85
2022/05/01 03:25:11;;;;;;;20.85;12.32;;;7.80;99.90;;;;;;4983222;28;20458;-89
2022/05/01 03:28:06;;;;;;;13.88;10.80;;;7.90;99.90;;;;;;4966588;28;20235;-86
2022/05/01 03:30:43;;;;;;;15.98;12.30;;;7.90;99.90;;;;;;4969122;28;20228;-87
2022/05/01 03:33:16;;;;;;;17.33;12.73;;;7.80;99.90;;;;;;4969147;28;20210;-86
2022/05/01 03:36:16;;;;;;;17.17;11.88;;;7.80;99.90;;;;;;4969798;28;20200;-86
2022/05/01 03:38:57;;;;;;;14.90;12.60;;;7.90;99.90;;;;;;4969560;28;20200;-87
2022/05/01 03:41:38;;;;;;;19.30;12.20;;;8.00;99.90;;;;;;4969800;28;20221;-86
2022/05/01 03:51:09;;;;;;;15.80;13.07;;;8.00;99.90;;;;;;4965238;28;20251;-86
2022/05/01 03:56:50;;;;;;;16.98;11.65;;;8.10;99.90;;;;;;4984767;28;20211;-86
2022/05/01 04:17:45;;;;;;;12.07;10.38;;;7.60;99.90;;;;;;4992737;28;20210;-85
2022/05/01 04:32:21;;;;;;;;;;;;;;;;;;;;;
2022/05/01 04:35:49;;;;;;;12.15;9.18;;;7.10;99.90;;;;;;4728569;29;20827;-85
2022/05/01 04:41:33;;;;;;;14.90;10.68;;;7.00;99.90;;;;;;4882076;29;20849;-84
2022/05/01 04:44:31;;;;;;;16.40;9.38;;;7.00;99.90;;;;;;4891597;29;20211;-85
2022/05/01 04:47:02;;;;;;;12.20;10.30;;;7.00;99.90;;;;;;4890681;29;20207;-85
2022/05/01 04:49:32;;;;;;;10.30;9.10;;;6.90;99.90;;;;;;4890774;29;20237;-83
2022/05/01 05:00:07;;;;;;;13.32;9.18;;;7.00;99.90;;;;;;4821711;29;20221;-85
2022/05/01 05:12:24;;;;;;;15.18;9.07;;;6.80;99.90;;;;;;4967793;28;20291;-85
2022/05/01 05:15:12;;;;;;;13.25;8.80;;;6.80;99.90;;;;;;4970130;28;20207;-84
2022/05/01 05:17:45;;;;;;;11.15;8.38;;;6.80;99.90;;;;;;4971213;28;20267;-84
2022/05/01 05:20:19;;;;;;;12.73;9.98;;;6.80;99.90;;;;;;4971748;28;20239;-86
2022/05/01 05:22:48;;;;;;;15.85;9.88;;;6.90;99.90;;;;;;4965790;28;20196;-86
2022/05/01 05:25:36;;;;;;;12.35;8.85;;;6.90;99.90;;;;;;5013658;28;20255;-83
2022/05/01 05:28:10;;;;;;;18.50;8.82;;;7.00;99.90;;;;;;5012127;28;20207;-85
2022/05/01 05:30:53;;;;;;;13.52;8.82;;;7.00;99.90;;;;;;5008535;28;20227;-84
2022/05/01 05:36:55;;;;;;;17.63;9.93;;;7.20;99.90;;;;;;5003769;28;20242;-84
2022/05/01 05:39:28;;;;;;;12.50;10.85;;;7.40;99.90;;;;;;5024862;28;20207;-85
2022/05/01 05:42:29;;;;;;;14.05;11.10;;;7.50;99.90;;;;;;5011226;28;20202;-85
2022/05/01 05:45:00;;;;;;;10.88;9.77;;;7.50;99.90;;;;;;5009347;28;20209;-86
2022/05/01 05:47:30;;;;;;;11.00;8.48;;;7.50;99.90;;;;;;5014539;28;20296;-85
2022/05/01 05:50:01;;;;;;;11.43;8.55;;;7.50;99.90;;;;;;5027826;28;20232;-85
2022/05/01 05:55:41;;;;;;;20.33;8.93;;;7.70;99.90;;;;;;5030586;28;20198;-84
2022/05/01 05:58:21;;;;;;;13.48;8.93;;;7.80;99.90;;;;;;5027254;28;20749;-86
2022/05/01 06:00:51;;;;;;;11.80;8.82;;;7.80;99.90;;;;;;5020800;28;20237;-85
2022/05/01 06:11:23;;;;;;;8.38;6.57;;;8.20;99.90;;;;;;5012433;23;20229;-83
2022/05/01 06:13:54;;;;;;;8.60;7.43;;;8.20;99.90;;;;;;5008137;28;20846;-83
2022/05/01 06:16:22;;;;;;;7.30;6.47;;;8.30;99.90;;;;;;5009066;28;20199;-85
2022/05/01 06:18:52;;;;;;;13.13;6.22;;;8.40;99.90;;;;;;5009573;28;20218;-87
2022/05/01 06:21:23;;;;;;;10.57;7.88;;;8.40;99.90;;;;;;5030691;28;20250;-87
2022/05/01 06:23:52;;;;;;;8.52;6.55;;;8.40;99.90;;;;;;5033225;28;20294;-87
2022/05/01 06:26:20;;;;;;;7.43;5.43;;;8.50;99.90;;;;;;5030631;28;20234;-86
2022/05/01 06:28:54;;;;;;;7.38;4.45;;;8.60;99.90;;;;;;5032702;28;20206;-85
2022/05/01 06:31:51;;;;;;;5.35;4.85;;;8.70;99.90;;;;;;5051304;28;20202;-87
2022/05/01 06:34:35;;;;;;;9.15;4.32;;;8.70;99.90;;;;;;4993808;28;20205;-85
2022/05/01 06:37:04;;;;;;;6.80;4.63;;;8.80;99.90;;;;;;5032461;28;20211;-84
2022/05/01 06:39:32;;;;;;;11.57;5.20;;;8.90;99.90;;;;;;5030923;28;20214;-84
2022/05/01 06:42:00;;;;;;;8.50;4.72;;;8.90;99.90;;;;;;5023850;28;20241;-84
2022/05/01 06:44:30;;;;;;;9.93;4.70;;;9.00;99.90;;;;;;5009889;28;20726;-84
2022/05/01 06:46:58;;;;;;;8.57;3.72;;;9.10;99.90;;;;;;5010196;28;20762;-84
2022/05/01 06:49:26;;;;;;;9.25;4.20;;;9.10;99.90;;;;;;5008220;28;20230;-83
2022/05/01 06:51:54;;;;;;;7.10;3.10;;;9.20;99.90;;;;;;5009559;28;20206;-85
2022/05/01 06:54:23;;;;;;;5.10;3.47;;;9.40;99.90;;;;;;5009953;28;20214;-85
2022/05/01 06:56:50;;;;;;;4.85;3.10;;;9.60;99.90;;;;;;5007285;28;20289;-83
2022/05/01 06:59:18;;;;;;;5.45;3.10;;;9.70;99.90;;;;;;5008817;28;20218;-84
2022/05/01 07:01:48;;;;;;;6.70;3.15;;;10.00;99.90;;;;;;5009019;28;20266;-85
2022/05/01 07:04:16;;;;;;;8.35;3.20;;;10.20;99.90;;;;;;5030448;28;20261;-84
2022/05/01 07:06:47;;;;;;;6.72;3.00;;;10.30;99.90;;;;;;5028233;28;20214;-85
2022/05/01 07:09:15;;;;;;;10.18;4.18;;;10.20;99.90;;;;;;5028726;28;20217;-84
2022/05/01 07:11:43;;;;;;;3.90;3.50;;;10.10;99.90;;;;;;5031992;28;20225;-85
2022/05/01 07:14:11;;;;;;;6.40;3.95;;;10.10;99.90;;;;;;5023801;28;20449;-84
2022/05/01 07:16:39;;;;;;;10.32;3.55;;;10.20;99.90;;;;;;5014806;28;20598;-84
2022/05/01 07:19:11;;;;;;;5.60;3.97;;;10.30;99.90;;;;;;5012098;28;20269;-84
2022/05/01 07:21:39;;;;;;;7.55;3.80;;;10.30;99.90;;;;;;5010585;28;20921;-84
2022/05/01 07:24:08;;;;;;;10.75;5.72;;;10.40;99.90;;;;;;5007997;28;20825;-84
2022/05/01 07:26:36;;;;;;;5.97;5.22;;;10.30;99.90;;;;;;5008613;28;20219;-83
2022/05/01 07:29:04;;;;;;;5.65;4.05;;;10.40;99.90;;;;;;5020110;28;20780;-84
2022/05/01 07:31:32;;;;;;;6.65;4.85;;;10.40;99.90;;;;;;5027333;28;20221;-84
2022/05/01 07:34:00;;;;;;;6.60;4.93;;;10.40;99.90;;;;;;5029261;28;20202;-83
2022/05/01 07:36:29;;;;;;;4.30;3.72;;;10.30;99.90;;;;;;5038071;28;20198;-84
2022/05/01 07:38:58;;;;;;;5.55;3.58;;;10.30;99.90;;;;;;5046255;28;20198;-82
2022/05/01 07:41:27;;;;;;;3.78;3.40;;;10.30;99.90;;;;;;5027064;28;20670;-85
2022/05/01 07:43:55;;;;;;;7.53;3.83;;;10.40;99.90;;;;;;5029294;28;20251;-86
2022/05/01 07:46:26;;;;;;;7.00;3.28;;;10.40;99.90;;;;;;5031174;28;20339;-88
2022/05/01 07:48:55;;;;;;;6.63;4.22;;;10.50;99.90;;;;;;5033049;28;20205;-86
2022/05/01 07:51:22;;;;;;;10.57;3.30;;;10.60;99.90;;;;;;5043105;28;20218;-84
2022/05/01 07:53:53;;;;;;;5.32;3.00;;;10.60;99.90;;;;;;5041499;28;20199;-83
2022/05/01 07:56:21;;;;;;;5.25;2.65;;;10.60;99.90;;;;;;5043925;28;20277;-84
2022/05/01 08:01:48;;;;;;;5.10;2.73;;;10.80;99.90;;;;;;5040158;23;20234;-85
2022/05/01 08:04:28;;;;;;;5.30;2.75;;;10.80;99.90;;;;;;5006219;28;20446;-84
2022/05/01 08:07:04;;;;;;;3.85;3.20;;;10.90;99.90;;;;;;5004726;28;20229;-83
2022/05/01 08:09:36;;;;;;;10.30;3.72;;;10.90;99.90;;;;;;5010545;28;20222;-86
2022/05/01 08:12:22;;;;;;;5.47;3.50;;;11.00;99.90;;;;;;5025559;28;20626;-84
2022/05/01 08:14:52;;;;;;;3.47;3.28;;;11.10;99.90;;;;;;5023567;28;20411;-80
2022/05/01 08:17:22;;;;;;;5.05;4.53;;;11.20;99.90;;;;;;5025018;28;20294;-85
2022/05/01 08:22:50;;;;;;;5.13;4.27;;;11.40;99.90;;;;;;5026123;28;21169;-83
2022/05/01 08:25:22;;;;;;;6.50;3.90;;;11.50;99.90;;;;;;5024805;28;20459;-83
2022/05/01 08:27:52;;;;;;;3.20;3.00;;;11.50;99.90;;;;;;5023090;28;20265;-84
2022/05/01 08:30:23;;;;;;;7.17;4.80;;;11.60;99.90;;;;;;5021994;28;20477;-84
2022/05/01 08:32:52;;;;;;;6.23;4.27;;;11.70;99.90;;;;;;5024037;28;20528;-84
2022/05/01 08:35:20;;;;;;;5.60;5.10;;;11.70;99.90;;;;;;5024465;28;20503;-83
2022/05/01 08:37:49;;;;;;;4.90;4.50;;;11.80;99.90;;;;;;5027153;28;20551;-83
2022/05/01 08:40:26;;;;;;;4.47;4.07;;;12.00;99.90;;;;;;5045602;28;20457;-87
2022/05/01 08:42:54;;;;;;;4.27;3.70;;;12.00;99.90;;;;;;5015775;28;20450;-85
2022/05/01 08:45:26;;;;;;;7.87;4.60;;;12.10;99.90;;;;;;5020593;28;21161;-83
2022/05/01 08:48:01;;;;;;;7.70;4.63;;;12.20;99.90;;;;;;5022009;28;20584;-83
2022/05/01 08:50:30;;;;;;;8.97;3.43;;;12.30;99.90;;;;;;5029656;28;20484;-85
2022/05/01 08:53:03;;;;;;;4.10;3.50;;;12.40;99.90;;;;;;5028710;28;21126;-82
2022/05/01 08:55:33;;;;;;;2.93;2.73;;;12.60;99.90;;;;;;5029453;28;20901;-84
2022/05/01 08:58:03;;;;;;;3.17;2.93;;;12.60;99.90;;;;;;5021385;28;21106;-83
2022/05/01 09:00:32;;;;;;;2.57;2.40;;;12.60;99.90;;;;;;5024047;28;20497;-82
2022/05/01 09:03:00;;;;;;;3.23;3.03;;;12.60;99.90;;;;;;5029611;28;21037;-82
2022/05/01 09:05:31;;;;;;;3.77;3.00;;;12.70;99.90;;;;;;5029692;28;20453;-83
2022/05/01 09:08:00;;;;;;;3.27;2.97;;;12.70;99.90;;;;;;5030661;28;20481;-84
2022/05/01 09:10:44;;;;;;;1.80;1.70;;;12.70;99.90;;;;;;5030495;28;21169;-87
2022/05/01 09:13:13;;;;;;;2.83;1.97;;;12.70;99.90;;;;;;5031324;28;21060;-84
2022/05/01 09:15:51;;;;;;;1.93;1.80;;;12.70;99.90;;;;;;5031161;28;21118;-85
2022/05/01 09:36:56;;;;;;;1.03;1.03;;;12.80;99.90;;;;;;4853661;29;20484;-88
2022/05/01 09:54:01;;;;;;;2.53;1.40;;;13.90;99.90;;;;;;4885637;29;20454;-91
2022/05/01 10:08:35;;;;;;;5.73;1.80;;;14.70;99.90;;;;;;4830069;29;21057;-90
2022/05/01 10:11:58;;;;;;;;;;;;;;;;;;;;;
2022/05/01 10:15:20;;;;;;;2.87;1.13;;;14.90;96.60;;;;;;4847520;29;21156;-93
2022/05/01 10:24:50;;;;;;;1.20;1.10;;;15.20;97.40;;;;;;5170404;23;20490;-84
2022/05/01 10:27:57;;;;;;;1.27;1.00;;;15.30;96.90;;;;;;4856726;29;20504;-85
2022/05/01 10:38:56;;;;;;;1.30;1.23;;;15.70;95.70;;;;;;4778209;29;20457;-84
2022/05/01 12:50:05;;;;;;;1.30;1.20;;;17.30;92.90;;;;;;5016445;28;20993;-86
2022/05/01 12:52:45;;;;;;;3.23;2.00;;;17.20;92.70;;;;;;5023640;28;20474;-86
2022/05/01 12:55:39;;;;;;;1.23;1.00;;;17.20;93.00;;;;;;5020418;28;20465;-85
2022/05/01 12:58:41;;;;;;;1.03;0.93;;;17.10;93.20;;;;;;4972314;28;20484;-87
2022/05/01 13:01:28;;;;;;;2.73;1.27;;;17.00;93.10;;;;;;5010369;28;20476;-87
2022/05/01 13:04:05;;;;;;;1.73;1.13;;;17.10;93.00;;;;;;5013014;28;20460;-86
2022/05/01 13:07:21;;;;;;;1.53;1.23;;;17.00;93.10;;;;;;5014318;28;20533;-85
2022/05/01 13:14:06;;;;;;;1.30;1.20;;;16.90;92.30;;;;;;5015130;28;20437;-86
2022/05/01 13:16:49;;;;;;;1.23;1.13;;;16.90;92.30;;;;;;4972072;28;20610;-88
2022/05/01 13:19:21;;;;;;;1.70;1.60;;;16.90;92.00;;;;;;4992782;28;20655;-90
2022/05/01 13:21:53;;;;;;;4.83;1.17;;;16.90;92.60;;;;;;5002062;28;20447;-92
2022/05/01 13:24:23;;;;;;;1.50;1.40;;;16.80;91.80;;;;;;4998375;28;20915;-86
2022/05/01 13:26:53;;;;;;;2.20;1.13;;;16.80;91.40;;;;;;4999739;28;20514;-94
2022/05/01 13:29:23;;;;;;;4.33;1.07;;;16.70;91.70;;;;;;5001696;28;20471;-89
2022/05/01 13:31:51;;;;;;;0.83;0.83;;;16.80;92.10;;;;;;5001940;28;20472;-90
2022/05/01 13:34:20;;;;;;;1.40;1.30;;;16.90;92.40;;;;;;5010476;28;20466;-90
2022/05/01 13:36:48;;;;;;;1.30;1.20;;;16.90;92.30;;;;;;5020867;28;20954;-90
2022/05/01 13:39:16;;;;;;;1.30;1.20;;;16.90;92.00;;;;;;5018567;28;20479;-90
2022/05/01 13:44:48;;;;;;;1.37;1.27;;;17.10;92.20;;;;;;5018251;28;20876;-88
2022/05/01 13:47:17;;;;;;;1.03;0.93;;;17.20;90.70;;;;;;5016964;28;20447;-89
2022/05/01 13:49:45;;;;;;;2.83;1.77;;;17.20;90.90;;;;;;5009914;28;20509;-91
2022/05/01 13:52:15;;;;;;;1.90;1.60;;;17.20;91.10;;;;;;5017460;28;20469;-89
2022/05/01 13:54:46;;;;;;;2.60;1.50;;;17.10;91.10;;;;;;5020956;28;20451;-91
2022/05/01 13:57:14;;;;;;;1.60;1.50;;;17.20;90.70;;;;;;5016779;28;20476;-91
2022/05/01 13:59:44;;;;;;;1.50;1.40;;;17.10;90.70;;;;;;5019689;28;20521;-89
2022/05/01 14:02:13;;;;;;;2.70;2.30;;;17.10;91.20;;;;;;5020537;28;20545;-89
2022/05/01 14:04:41;;;;;;;2.10;1.60;;;17.00;91.40;;;;;;5019427;28;20482;-89
2022/05/01 14:07:09;;;;;;;1.37;1.27;;;16.90;91.40;;;;;;5003025;28;21135;-89
2022/05/01 14:09:37;;;;;;;1.67;1.57;;;16.90;91.60;;;;;;5017844;28;21238;-90
2022/05/01 14:12:08;;;;;;;3.63;0.80;;;16.80;91.50;;;;;;5018129;28;20952;-89
2022/05/01 14:14:36;;;;;;;1.67;1.30;;;16.70;91.20;;;;;;5011971;28;20519;-90
2022/05/01 14:17:06;;;;;;;1.53;1.43;;;16.70;91.40;;;;;;5019354;28;20555;-90
2022/05/01 14:19:34;;;;;;;4.37;3.07;;;16.70;91.60;;;;;;5017723;28;20482;-91
2022/05/01 14:22:02;;;;;;;1.67;1.57;;;16.60;91.50;;;;;;5018864;28;20738;-90
2022/05/01 14:24:50;;;;;;;3.13;2.17;;;16.50;92.30;;;;;;5008648;28;20474;-91
2022/05/01 14:27:19;;;;;;;3.23;1.80;;;16.40;93.10;;;;;;5018522;28;20478;-89
2022/05/01 14:29:48;;;;;;;1.93;1.83;;;16.30;93.60;;;;;;5020521;28;20512;-89
2022/05/01 14:32:23;;;;;;;2.23;2.03;;;16.20;93.90;;;;;;5011077;28;20818;-90
2022/05/01 14:34:57;;;;;;;5.93;2.20;;;16.00;94.00;;;;;;5021686;28;20472;-88
2022/05/01 14:37:32;;;;;;;2.37;2.13;;;16.00;93.90;;;;;;5020682;28;20533;-91
2022/05/01 14:40:03;;;;;;;3.70;2.07;;;15.70;94.30;;;;;;5021204;28;20481;-91
2022/05/01 14:42:32;;;;;;;2.57;2.37;;;15.60;94.40;;;;;;5004093;28;20466;-90
2022/05/01 14:45:04;;;;;;;2.37;2.00;;;15.40;94.60;;;;;;5019689;28;20446;-91
2022/05/01 14:47:44;;;;;;;4.07;1.70;;;15.30;95.20;;;;;;5024644;28;20447;-90
2022/05/01 14:50:16;;;;;;;1.90;1.80;;;15.20;95.10;;;;;;5014846;28;20584;-90
2022/05/01 14:52:50;;;;;;;2.23;2.03;;;15.30;95.10;;;;;;5030026;28;20462;-89
2022/05/01 14:55:21;;;;;;;3.87;2.00;;;15.20;94.50;;;;;;5029897;28;20492;-90
2022/05/01 14:57:52;;;;;;;2.70;2.00;;;15.30;95.00;;;;;;5027140;28;20481;-88
2022/05/01 15:06:21;;;;;;;4.17;3.30;;;15.10;95.10;;;;;;4982569;28;20963;-88
2022/05/01 15:08:52;;;;;;;2.80;2.60;;;15.00;94.80;;;;;;5012144;28;20512;-90
2022/05/01 15:11:20;;;;;;;3.17;2.13;;;15.10;95.10;;;;;;5016949;28;20488;-89
2022/05/01 15:13:48;;;;;;;2.53;2.33;;;15.20;95.40;;;;;;5016661;28;20454;-89
2022/05/01 15:16:20;;;;;;;3.27;2.83;;;15.40;95.80;;;;;;5015867;28;21016;-86
2022/05/01 15:18:56;;;;;;;5.70;4.37;;;15.40;95.90;;;;;;5015743;28;20512;-89
2022/05/01 15:24:36;;;;;;;3.57;3.30;;;15.30;96.50;;;;;;5015349;28;20446;-89
2022/05/01 15:27:11;;;;;;;3.30;2.93;;;15.10;96.20;;;;;;5016272;28;20787;-88
2022/05/01 15:29:45;;;;;;;7.83;3.50;;;15.10;96.90;;;;;;5017660;28;20546;-88
2022/05/01 15:32:17;;;;;;;5.20;3.03;;;15.10;97.30;;;;;;5016803;28;21234;-88
2022/05/01 15:34:50;;;;;;;3.80;3.40;;;15.10;97.30;;;;;;5017333;28;20518;-90
2022/05/01 15:37:22;;;;;;;3.57;3.37;;;15.10;97.40;;;;;;5016963;28;20449;-89
2022/05/01 15:39:58;;;;;;;3.33;3.13;;;15.00;97.30;;;;;;5014932;28;20493;-89
2022/05/01 15:42:28;;;;;;;3.30;3.10;;;15.00;97.60;;;;;;5016238;28;20450;-89
2022/05/01 15:44:56;;;;;;;3.10;2.80;;;15.00;97.40;;;;;;5015396;28;21131;-89
2022/05/01 15:47:31;;;;;;;3.10;2.83;;;15.00;97.50;;;;;;5013669;28;20457;-91
2022/05/01 16:00:34;;;;;;;3.47;3.07;;;14.90;97.50;;;;;;4958710;29;20462;-90
2022/05/01 16:03:48;;;;;;;8.37;5.13;;;14.90;97.80;;;;;;5000382;28;20452;-91
2022/05/01 16:06:27;;;;;;;3.30;3.00;;;14.90;98.10;;;;;;5019670;28;20513;-89
2022/05/01 16:08:55;;;;;;;4.90;3.30;;;15.00;97.90;;;;;;5022901;28;20723;-90
2022/05/01 16:11:36;;;;;;;3.57;2.93;;;15.00;98.10;;;;;;5022139;28;20466;-90
2022/05/01 16:14:14;;;;;;;4.50;2.50;;;15.10;98.10;;;;;;5022152;28;20454;-89
2022/05/01 16:17:01;;;;;;;5.73;3.37;;;15.10;97.80;;;;;;5020903;28;20456;-89
2022/05/01 16:19:54;;;;;;;3.60;3.27;;;15.00;97.70;;;;;;5022898;28;20536;-92
2022/05/01 16:22:48;;;;;;;5.00;3.73;;;15.00;97.50;;;;;;5024696;28;20457;-91
2022/05/01 16:25:44;;;;;;;8.17;4.10;;;14.80;97.80;;;;;;4986482;28;20469;-92
2022/05/01 16:28:25;;;;;;;3.23;2.80;;;14.80;98.20;;;;;;4980710;28;20523;-95
2022/05/01 16:57:35;;;;;;;4.53;2.80;;;15.30;97.70;;;;;;4999972;28;20474;-92
2022/05/01 17:00:18;;;;;;;2.40;2.20;;;15.30;97.90;;;;;;5003657;28;20463;-90
2022/05/01 17:03:37;;;;;;;4.30;2.60;;;15.30;98.00;;;;;;4999484;28;20465;-90
2022/05/01 17:09:49;;;;;;;2.50;2.40;;;15.10;97.70;;;;;;4937958;28;20475;-91
2022/05/01 17:12:28;;;;;;;6.27;2.70;;;15.00;97.60;;;;;;5010815;28;20474;-92
2022/05/01 17:18:17;;;;;;;2.47;2.27;;;14.70;98.00;;;;;;4906487;29;20831;-89
2022/05/01 17:21:06;;;;;;;6.10;2.40;;;14.50;98.70;;;;;;4904654;29;20532;-90
2022/05/01 17:23:48;;;;;;;3.43;2.27;;;14.40;98.40;;;;;;4944816;29;20481;-93
2022/05/01 17:26:33;;;;;;;4.03;2.73;;;14.40;98.40;;;;;;4948403;29;20954;-94
2022/05/01 17:29:19;;;;;;;1.90;1.80;;;14.30;98.50;;;;;;4931931;29;20550;-92
2022/05/01 17:32:14;;;;;;;1.97;1.70;;;14.30;98.50;;;;;;4922192;29;20453;-89
2022/05/01 17:34:44;;;;;;;1.90;1.80;;;14.30;98.60;;;;;;4927940;29;20461;-92
2022/05/01 17:37:15;;;;;;;2.60;2.10;;;14.30;98.80;;;;;;4921578;29;20979;-93
2022/05/01 17:39:49;;;;;;;4.43;2.33;;;14.30;98.70;;;;;;4903627;29;20483;-90
2022/05/01 17:42:21;;;;;;;2.93;2.20;;;14.20;98.90;;;;;;4947891;28;20814;-92
2022/05/01 17:45:35;;;;;;;3.97;2.43;;;14.20;98.90;;;;;;4982144;28;20491;-92
2022/05/01 17:48:05;;;;;;;4.67;2.23;;;14.10;99.10;;;;;;4981366;28;20482;-90
2022/05/01 17:50:37;;;;;;;3.60;1.97;;;14.00;99.20;;;;;;4989449;28;20485;-91
2022/05/01 17:53:10;;;;;;;4.30;1.97;;;14.00;99.40;;;;;;4997439;28;20497;-88
2022/05/01 17:55:41;;;;;;;3.60;2.63;;;14.00;99.50;;;;;;4989526;28;20480;-89
2022/05/01 17:58:11;;;;;;;4.60;2.30;;;13.90;99.50;;;;;;4994297;28;20451;-91
2022/05/01 18:01:02;;;;;;;2.80;2.27;;;13.90;99.60;;;;;;4998011;28;20850;-90
2022/05/01 18:10:00;;;;;;;2.93;2.70;;;13.90;99.70;;;;;;4993857;28;20451;-89
2022/05/01 18:13:17;;;;;;;2.27;2.17;;;13.80;99.80;;;;;;5008293;28;20513;-88
2022/05/01 18:15:52;;;;;;;8.60;2.43;;;13.80;99.80;;;;;;4912071;29;20507;-89
2022/05/01 18:21:49;;;;;;;2.10;1.77;;;13.60;99.80;;;;;;4929900;28;20469;-88
2022/05/01 18:24:40;;;;;;;2.77;2.17;;;13.60;99.90;;;;;;4994506;28;20510;-90
2022/05/01 18:27:30;;;;;;;2.47;2.07;;;13.40;99.90;;;;;;4997309;28;21021;-89
2022/05/01 18:30:18;;;;;;;3.47;1.80;;;13.40;99.90;;;;;;4994621;28;20627;-93
2022/05/01 18:37:00;;;;;;;4.00;1.93;;;13.40;99.90;;;;;;4994169;28;20513;-87
2022/05/01 18:39:42;;;;;;;1.93;1.60;;;13.30;99.90;;;;;;4990727;28;20521;-87
2022/05/01 18:42:42;;;;;;;5.80;2.33;;;13.30;99.90;;;;;;4994537;28;20431;-86
2022/05/01 18:45:50;;;;;;;2.43;1.67;;;13.20;99.90;;;;;;4991980;28;20455;-87
2022/05/01 18:48:36;;;;;;;2.20;2.00;;;13.30;99.90;;;;;;4969629;28;20451;-87
2022/05/01 18:51:24;;;;;;;4.37;2.00;;;13.20;99.90;;;;;;4994194;28;20815;-88
2022/05/01 18:53:53;;;;;;;2.13;1.93;;;13.20;99.90;;;;;;4992735;28;20439;-88
2022/05/01 18:56:29;;;;;;;3.30;1.57;;;13.20;99.90;;;;;;4990729;28;20455;-89
2022/05/01 18:59:05;;;;;;;1.83;1.50;;;13.20;99.90;;;;;;4994125;28;20442;-89
2022/05/01 19:02:01;;;;;;;2.77;2.00;;;13.20;99.90;;;;;;4988793;28;20459;-88
2022/05/01 19:04:31;;;;;;;3.40;1.93;;;13.20;99.90;;;;;;4990738;28;20451;-86
2022/05/01 19:07:08;;;;;;;2.00;1.80;;;13.10;99.90;;;;;;4989411;28;20734;-88
2022/05/01 19:10:02;;;;;;;3.93;2.20;;;13.20;99.90;;;;;;4991829;28;20513;-87
2022/05/01 19:13:15;;;;;;;2.23;2.13;;;13.10;99.90;;;;;;4995277;28;20522;-87
2022/05/01 19:15:51;;;;;;;2.70;2.20;;;13.10;99.90;;;;;;4919497;29;20478;-88
2022/05/01 19:18:33;;;;;;;1.50;1.40;;;13.00;99.90;;;;;;4913790;29;20451;-87
2022/05/01 19:21:37;;;;;;;2.77;1.83;;;12.90;99.90;;;;;;4910187;29;20502;-88
2022/05/01 19:27:48;;;;;;;2.60;2.10;;;12.80;99.90;;;;;;4912921;29;20494;-88
2022/05/01 19:30:19;;;;;;;2.13;1.67;;;12.90;99.90;;;;;;4916627;29;20477;-87
2022/05/01 19:33:05;;;;;;;2.03;1.67;;;12.90;99.90;;;;;;4906430;29;20452;-88
2022/05/01 19:35:42;;;;;;;2.40;1.60;;;12.80;99.90;;;;;;4905003;29;20479;-89
2022/05/01 19:38:28;;;;;;;3.23;1.50;;;12.80;99.90;;;;;;4911103;29;20561;-89
2022/05/01 19:41:23;;;;;;;2.33;2.20;;;12.80;99.90;;;;;;4915831;29;20470;-88
2022/05/01 19:43:59;;;;;;;2.60;1.57;;;12.80;99.90;;;;;;4919550;29;20510;-90
2022/05/01 19:46:36;;;;;;;2.10;1.90;;;12.80;99.90;;;;;;4943404;28;20466;-90
2022/05/01 19:55:15;;;;;;;2.63;1.97;;;12.70;99.90;;;;;;4937275;29;20489;-89
2022/05/01 19:57:46;;;;;;;4.27;1.90;;;12.70;99.90;;;;;;4985025;28;20470;-89
2022/05/01 20:00:50;;;;;;;1.63;1.50;;;12.70;99.90;;;;;;4997901;28;20574;-90
2022/05/01 20:06:40;;;;;;;2.80;1.70;;;12.70;99.90;;;;;;4977508;28;20448;-86
2022/05/01 20:09:38;;;;;;;2.50;2.30;;;12.70;99.90;;;;;;4975075;28;20483;-89
2022/05/01 20:12:21;;;;;;;2.00;1.90;;;12.70;99.90;;;;;;4974366;28;20526;-89
2022/05/01 20:14:50;;;;;;;3.10;2.50;;;12.70;99.90;;;;;;4979139;28;20458;-90
2022/05/01 20:18:09;;;;;;;;;;;;;;;;;;;;;
2022/05/01 20:21:14;;;;;;;7.57;2.67;;;12.60;99.90;;;;;;4976498;28;20494;-88
2022/05/01 20:24:07;;;;;;;2.20;2.10;;;12.50;99.90;;;;;;4988390;28;20463;-89
2022/05/01 20:26:52;;;;;;;4.07;2.43;;;12.50;99.90;;;;;;4998048;28;20695;-90
2022/05/01 20:29:29;;;;;;;4.13;2.37;;;12.50;99.90;;;;;;4985372;28;20665;-89
2022/05/01 20:32:17;;;;;;;3.13;2.27;;;12.50;99.90;;;;;;4978547;28;20494;-89
2022/05/01 20:34:52;;;;;;;4.27;2.50;;;12.40;99.90;;;;;;4973974;28;20456;-87
2022/05/01 20:37:49;;;;;;;2.30;2.10;;;12.40;99.90;;;;;;4991810;28;20470;-89
2022/05/01 20:40:23;;;;;;;2.13;1.93;;;12.50;99.90;;;;;;4996240;28;20473;-88
2022/05/01 20:43:17;;;;;;;4.10;2.10;;;12.40;99.90;;;;;;4996324;28;20446;-88
2022/05/01 20:46:10;;;;;;;2.37;2.17;;;12.40;99.90;;;;;;4996900;28;21021;-87
2022/05/01 20:53:24;;;;;;;;;;;;;;;;;;;;;
2022/05/01 21:39:41;;;;;;;1.90;1.80;;;12.00;99.90;;;;;;4788414;29;20441;-87
2022/05/01 21:50:31;;;;;;;2.10;1.87;;;11.90;99.90;;;;;;4687890;30;20697;-88
2022/05/01 21:53:02;;;;;;;2.27;2.07;;;11.90;99.90;;;;;;4752385;30;21101;-89
2022/05/01 21:55:32;;;;;;;3.00;1.97;;;11.90;99.90;;;;;;4822753;29;20478;-89
2022/05/01 21:58:01;;;;;;;2.20;2.10;;;11.90;99.90;;;;;;4843689;29;20462;-88
2022/05/01 22:00:35;;;;;;;3.30;2.40;;;11.90;99.90;;;;;;4840835;29;20478;-88
2022/05/01 22:03:07;;;;;;;6.63;2.23;;;11.80;99.90;;;;;;4896782;29;20946;-88
2022/05/01 22:05:40;;;;;;;4.97;2.20;;;11.80;99.90;;;;;;4937970;29;20546;-88
2022/05/01 22:15:56;;;;;;;4.47;2.50;;;11.60;99.90;;;;;;4801866;29;20457;-88
2022/05/01 22:18:40;;;;;;;2.70;2.33;;;11.60;99.90;;;;;;4931928;29;20635;-87
2022/05/01 22:21:21;;;;;;;2.57;2.40;;;11.60;99.90;;;;;;4948406;28;20826;-88
2022/05/01 22:24:14;;;;;;;4.30;2.60;;;11.60;99.90;;;;;;4997154;28;20492;-87
2022/05/01 22:27:21;;;;;;;5.20;2.80;;;11.60;99.90;;;;;;4998988;28;20469;-88
2022/05/01 22:30:22;;;;;;;2.73;2.33;;;11.60;99.90;;;;;;4921294;28;21084;-88
2022/05/01 22:32:54;;;;;;;3.60;2.70;;;11.60;99.90;;;;;;4983774;28;20777;-89
2022/05/01 22:38:09;;;;;;;2.90;2.67;;;11.60;99.90;;;;;;4996720;28;20454;-87
2022/05/01 22:40:39;;;;;;;3.47;3.03;;;11.50;99.90;;;;;;4996851;28;20525;-86
2022/05/01 22:43:10;;;;;;;6.83;2.87;;;11.50;99.90;;;;;;4997451;28;20495;-89
2022/05/01 22:45:39;;;;;;;2.60;2.50;;;11.50;99.90;;;;;;4985378;28;21085;-86
2022/05/01 22:48:08;;;;;;;2.83;2.63;;;11.40;99.90;;;;;;4984502;28;20502;-87
2022/05/01 22:50:36;;;;;;;5.10;2.80;;;11.40;99.90;;;;;;4984206;28;20531;-88
2022/05/01 22:53:05;;;;;;;2.33;2.23;;;11.40;99.90;;;;;;4977168;28;21013;-87
2022/05/01 22:55:34;;;;;;;3.37;2.70;;;11.30;99.90;;;;;;4997040;28;20454;-86
2022/05/01 22:58:03;;;;;;;3.13;2.27;;;11.40;99.90;;;;;;4982728;28;20448;-87
2022/05/01 23:00:32;;;;;;;2.73;2.50;;;11.40;99.90;;;;;;4991441;28;20467;-87
2022/05/01 23:03:00;;;;;;;3.53;2.80;;;11.40;99.90;;;;;;4996383;28;20455;-87
2022/05/01 23:05:29;;;;;;;2.50;2.30;;;11.40;99.90;;;;;;4995486;28;20478;-88
2022/05/01 23:07:58;;;;;;;1.60;1.50;;;11.40;99.90;;;;;;4995303;28;20469;-88
2022/05/01 23:10:26;;;;;;;3.23;2.70;;;11.40;99.90;;;;;;4995469;28;20724;-88
2022/05/01 23:12:56;;;;;;;2.97;2.57;;;11.40;99.90;;;;;;4996146;28;20573;-88
2022/05/01 23:15:24;;;;;;;3.67;2.27;;;11.40;99.90;;;;;;4997017;28;20453;-88
2022/05/01 23:17:54;;;;;;;5.75;2.65;;;11.30;99.90;;;;;;4995731;28;20458;-87
2022/05/01 23:20:52;;;;;;;2.47;2.28;;;11.40;99.90;;;;;;4995972;28;20215;-87
2022/05/01 23:23:14;;;;;;;2.53;2.33;;;11.40;99.90;;;;;;4995612;28;20207;-88
2022/05/01 23:25:42;;;;;;;2.45;2.05;;;11.40;99.90;;;;;;4995501;28;20813;-87
2022/05/01 23:28:12;;;;;;;2.03;1.90;;;11.40;99.90;;;;;;4999695;28;20219;-87
2022/05/01 23:30:40;;;;;;;2.27;2.13;;;11.40;99.90;;;;;;5011630;28;20455;-88
2022/05/01 23:33:11;;;;;;;2.07;1.90;;;11.30;99.90;;;;;;4998204;28;20473;-87
2022/05/01 23:35:39;;;;;;;2.40;2.20;;;11.30;99.90;;;;;;4997996;28;21080;-88
2022/05/01 23:38:09;;;;;;;4.00;2.33;;;11.20;99.90;;;;;;4996859;28;20212;-88
2022/05/01 23:40:38;;;;;;;3.25;2.78;;;11.00;99.90;;;;;;4997287;28;20993;-88
2022/05/01 23:43:08;;;;;;;2.88;2.67;;;10.90;99.90;;;;;;4997805;28;20715;-88
2022/05/01 23:45:39;;;;;;;2.70;2.50;;;10.90;99.90;;;;;;4995932;28;20207;-88
2022/05/01 23:48:08;;;;;;;5.78;2.60;;;10.80;99.90;;;;;;4996930;28;20451;-89
2022/05/01 23:50:36;;;;;;;2.40;2.20;;;10.80;99.90;;;;;;4996847;28;20290;-88